Disclaimer

Please do not use the information listed here in-flight or in-navigation, as they are not provided to us by the airports but are provided by volunteers, so they might be outdated.

Search


Regions


Airport information page

Radio informations:
UNICOM - 122.95 MHz
Common traffic adv. frequency (CTAF) - 118.8 MHz
Automatic Terminal Information Service (ATIS) - 124.0 MHz

Airport informations:
Latitude: 18° 20' 14.30" N
Longitude: 064° 58' 24.10" W
Elevation: 23 feet - 7 meters
Operating hours: Remarks
Operating agency: Civil government, landing fees and diplomatic clearance may be required
Timezone: UTC-4
Fuel: Jet A, without icing inhibitor.

100/130 MIL Spec, low lead, aviation gasoline (BLUE)

Runway information:
10/28 - 7000 x 150 feet< - >2134 x 46 meters

Recent METARs:
TIST 162153Z 09011KT 10SM FEW020 OVC080 27/23 A2995 RMK AO2 SLP142 T02720233
TIST 162253Z 08012KT 10SM FEW016 OVC049 25/23 A2996 RMK AO2 PK WND 11027/2228 RAB30E49 SLP145 P0006 T02500233
TIST 162253Z 08012KT 10SM FEW016 OVC049 25/23 A2996 RMK AO2 PK WND 11027/2228 RAB30E49 SLP145 P0006 T02500233

Airport on the map: